Time;durP1;ratioP1;P1;durP2;ratioP2;P2;SDS_P1;SDS_P2;PMS_P1;PMS_P2;Temp;Humidity;BMP_temperature;BMP_pressure;BME280_temperature;BME280_humidity;BME280_pressure;Samples;Min_cycle;Max_cycle;Signal;HPM_P1;HPM_P2
2023/03/28 00:00:59;;;;;;;4.07;3.77;;;4.50;55.60;;;;;;20789;6823;117528;-71
2023/03/28 00:03:26;;;;;;;4.20;4.00;;;4.60;55.20;;;;;;20783;6823;117742;-72
2023/03/28 00:05:50;;;;;;;5.90;5.50;;;4.50;55.50;;;;;;20575;6823;285448;-72
2023/03/28 00:08:15;;;;;;;4.53;4.23;;;4.70;55.40;;;;;;20789;6824;119095;-71
2023/03/28 00:10:43;;;;;;;4.13;3.80;;;4.60;55.60;;;;;;20764;6824;117896;-71
2023/03/28 00:13:08;;;;;;;3.73;3.53;;;4.60;55.50;;;;;;20789;6824;116954;-71
2023/03/28 00:15:38;;;;;;;4.80;4.50;;;4.70;55.70;;;;;;20553;6824;311489;-71
2023/03/28 00:18:04;;;;;;;3.93;3.73;;;4.70;55.70;;;;;;20785;6824;119535;-72
2023/03/28 00:20:30;;;;;;;3.40;3.20;;;4.70;55.80;;;;;;20766;6824;122812;-72
2023/03/28 00:22:55;;;;;;;3.97;3.67;;;4.70;55.80;;;;;;20564;6824;318354;-72
2023/03/28 00:25:21;;;;;;;3.47;3.20;;;5.10;55.20;;;;;;20784;6824;116891;-72
2023/03/28 00:27:47;;;;;;;3.00;2.80;;;5.00;55.10;;;;;;20787;6824;117740;-72
2023/03/28 00:30:15;;;;;;;2.67;2.57;;;4.80;55.50;;;;;;20786;6824;116922;-72
2023/03/28 00:32:40;;;;;;;3.77;2.70;;;4.80;55.70;;;;;;20764;6824;119163;-72
2023/03/28 00:35:06;;;;;;;3.63;3.43;;;4.80;56.00;;;;;;20576;6824;306428;-72
2023/03/28 00:37:33;;;;;;;2.90;2.80;;;5.00;55.30;;;;;;20787;6824;119494;-72
2023/03/28 00:40:00;;;;;;;3.03;2.83;;;5.10;55.00;;;;;;20786;6822;117315;-72
2023/03/28 00:42:24;;;;;;;3.07;2.93;;;5.00;55.20;;;;;;20767;6823;116941;-72
2023/03/28 00:44:51;;;;;;;2.70;2.50;;;4.80;55.90;;;;;;20785;6823;118603;-73
2023/03/28 00:47:35;;;;;;;2.90;2.63;;;4.80;55.90;;;;;;20780;6823;117014;-72
2023/03/28 00:50:07;;;;;;;2.63;2.43;;;4.70;56.20;;;;;;20791;6823;117268;-72
2023/03/28 00:52:34;;;;;;;3.10;2.90;;;4.70;56.80;;;;;;20778;6823;126700;-71
2023/03/28 00:54:59;;;;;;;2.80;2.70;;;4.70;56.70;;;;;;20783;6823;117031;-73
2023/03/28 00:57:26;;;;;;;3.67;3.47;;;4.70;57.00;;;;;;20582;6823;303062;-73
2023/03/28 00:59:51;;;;;;;3.60;3.30;;;5.00;56.10;;;;;;20589;6823;311130;-72
2023/03/28 01:02:17;;;;;;;3.47;3.20;;;5.40;53.90;;;;;;20786;6823;116766;-72
2023/03/28 01:04:45;;;;;;;3.77;3.47;;;5.40;53.60;;;;;;20551;6823;319225;-72
2023/03/28 01:07:10;;;;;;;3.53;3.33;;;5.60;53.10;;;;;;20551;6823;336358;-73
2023/03/28 01:09:36;;;;;;;4.10;3.80;;;5.80;52.10;;;;;;20571;6823;336566;-73
2023/03/28 01:12:01;;;;;;;3.93;3.73;;;6.00;51.30;;;;;;20565;6823;308489;-73
2023/03/28 01:14:27;;;;;;;3.20;3.00;;;6.20;50.80;;;;;;20756;6823;117436;-73
2023/03/28 01:16:55;;;;;;;3.63;3.33;;;6.00;51.10;;;;;;20566;6823;278129;-73
2023/03/28 01:19:41;;;;;;;3.30;3.10;;;6.00;51.10;;;;;;20776;6824;116944;-73
2023/03/28 01:22:35;;;;;;;3.20;3.00;;;5.90;51.30;;;;;;20543;6824;319780;-73
2023/03/28 01:25:20;;;;;;;3.47;3.17;;;6.00;51.40;;;;;;20574;6824;307162;-73
2023/03/28 01:28:08;;;;;;;3.83;3.60;;;6.30;50.90;;;;;;20523;6824;306821;-72
2023/03/28 01:31:04;;;;;;;3.20;3.00;;;6.50;50.20;;;;;;20759;6824;117457;-72
2023/03/28 01:33:49;;;;;;;3.53;3.30;;;6.20;50.60;;;;;;20100;6824;340437;-73
2023/03/28 01:36:35;;;;;;;2.97;2.87;;;6.20;50.50;;;;;;20779;6824;116759;-73
2023/03/28 01:39:20;;;;;;;2.47;2.37;;;6.00;50.70;;;;;;20781;6824;119370;-72
2023/03/28 01:41:46;;;;;;;2.90;2.70;;;5.30;52.70;;;;;;20784;6824;117329;-72
2023/03/28 01:44:35;;;;;;;2.90;2.80;;;5.30;52.20;;;;;;20754;6824;117349;-73
2023/03/28 01:47:04;;;;;;;2.70;2.50;;;5.10;52.60;;;;;;20782;6824;120236;-71
2023/03/28 01:49:40;;;;;;;3.40;3.20;;;4.90;53.10;;;;;;20570;6824;336080;-73
2023/03/28 01:52:32;;;;;;;3.47;3.17;;;5.10;52.80;;;;;;20765;6822;117753;-73
2023/03/28 01:55:18;;;;;;;3.40;3.20;;;4.90;53.10;;;;;;20757;6823;117025;-73
2023/03/28 01:57:57;;;;;;;3.03;2.83;;;4.80;53.00;;;;;;20181;6823;119253;-73
2023/03/28 02:00:33;;;;;;;4.20;3.87;;;4.70;53.50;;;;;;20539;6823;306741;-73
2023/03/28 02:03:06;;;;;;;4.07;3.50;;;4.90;53.10;;;;;;20772;6823;117551;-73
2023/03/28 02:05:31;;;;;;;4.57;4.27;;;4.90;52.80;;;;;;20558;6823;277823;-73
2023/03/28 02:07:57;;;;;;;3.83;3.60;;;5.00;52.20;;;;;;20782;6823;117334;-73
2023/03/28 02:10:22;;;;;;;4.82;4.43;;;5.00;52.20;;;;;;20540;6823;336771;-73
2023/03/28 02:12:49;;;;;;;3.77;3.47;;;5.10;52.60;;;;;;20775;6823;117054;-73
2023/03/28 02:15:15;;;;;;;3.97;3.67;;;5.00;51.90;;;;;;20769;6823;117178;-73
2023/03/28 02:17:41;;;;;;;4.80;4.50;;;4.80;52.70;;;;;;20570;6823;278115;-73
2023/03/28 02:20:13;;;;;;;4.77;4.47;;;4.90;52.70;;;;;;20558;6823;307431;-73
2023/03/28 02:22:38;;;;;;;4.17;3.90;;;5.20;52.00;;;;;;20771;6823;119330;-73
2023/03/28 02:25:04;;;;;;;3.73;3.43;;;5.20;52.00;;;;;;20777;6823;117096;-73
2023/03/28 02:27:29;;;;;;;4.87;4.47;;;4.90;52.40;;;;;;20573;6823;277509;-73
2023/03/28 02:29:54;;;;;;;4.50;4.30;;;5.00;52.70;;;;;;20570;6824;307377;-73
2023/03/28 02:32:23;;;;;;;4.45;4.22;;;5.30;51.60;;;;;;20558;6824;277898;-73
2023/03/28 02:34:49;;;;;;;4.23;3.93;;;5.60;50.70;;;;;;20783;6824;117155;-73
2023/03/28 02:37:24;;;;;;;4.10;3.80;;;5.40;50.70;;;;;;20777;6824;116975;-73
2023/03/28 02:40:06;;;;;;;3.20;3.00;;;5.10;51.40;;;;;;20771;6824;116884;-73
2023/03/28 02:42:41;;;;;;;4.60;4.30;;;4.80;52.10;;;;;;20474;6824;311332;-73
2023/03/28 02:45:29;;;;;;;4.83;4.50;;;4.90;52.20;;;;;;19943;6824;307406;-73
2023/03/28 02:47:58;;;;;;;5.93;5.43;;;5.30;51.20;;;;;;20564;6824;277575;-73
2023/03/28 02:50:33;;;;;;;4.17;3.90;;;5.50;50.40;;;;;;20750;6824;117399;-73
2023/03/28 02:53:06;;;;;;;3.50;3.20;;;5.30;50.40;;;;;;20069;6824;118661;-73
2023/03/28 02:55:45;;;;;;;4.57;4.20;;;5.00;50.60;;;;;;20554;6824;308420;-72
2023/03/28 02:58:13;;;;;;;3.63;3.43;;;5.00;51.40;;;;;;20167;6824;119205;-73
2023/03/28 03:00:38;;;;;;;4.40;4.10;;;4.90;51.60;;;;;;20532;6824;313093;-73
2023/03/28 03:03:04;;;;;;;4.50;4.20;;;5.00;51.60;;;;;;20568;6822;306489;-73
2023/03/28 03:05:29;;;;;;;3.50;3.30;;;5.30;51.10;;;;;;20775;6823;117791;-73
2023/03/28 03:07:59;;;;;;;3.47;3.27;;;4.90;51.70;;;;;;20784;6823;116840;-73
2023/03/28 03:10:24;;;;;;;3.80;3.50;;;4.90;51.70;;;;;;20533;6823;307077;-73
2023/03/28 03:12:51;;;;;;;4.20;3.90;;;5.20;50.50;;;;;;20569;6823;279860;-73
2023/03/28 03:15:16;;;;;;;4.17;3.77;;;5.20;50.50;;;;;;20781;6823;116935;-73
2023/03/28 03:17:42;;;;;;;3.87;3.67;;;5.10;50.60;;;;;;20785;6823;117297;-73
2023/03/28 03:20:09;;;;;;;4.57;4.10;;;4.90;51.30;;;;;;20554;6823;308924;-73
2023/03/28 03:22:35;;;;;;;4.40;4.10;;;4.90;51.20;;;;;;20547;6823;307768;-74
2023/03/28 03:25:05;;;;;;;3.40;3.20;;;5.20;50.20;;;;;;20787;6823;117156;-73
2023/03/28 03:27:26;;;;;;;4.07;3.70;;;5.10;50.30;;;;;;20774;6823;117367;-73
2023/03/28 03:29:52;;;;;;;4.37;4.03;;;4.80;50.90;;;;;;20783;6823;119563;-73
2023/03/28 03:32:17;;;;;;;4.70;4.40;;;4.60;51.50;;;;;;20558;6823;314642;-73
2023/03/28 03:34:43;;;;;;;3.97;3.67;;;4.70;51.10;;;;;;20757;6823;117914;-73
2023/03/28 03:37:09;;;;;;;4.57;4.17;;;4.70;51.10;;;;;;20781;6823;115975;-73
2023/03/28 03:39:35;;;;;;;4.13;3.73;;;4.30;51.90;;;;;;20775;6823;116950;-73
2023/03/28 03:42:01;;;;;;;3.30;3.10;;;4.20;51.80;;;;;;20776;6824;120565;-73
2023/03/28 03:44:26;;;;;;;4.60;4.20;;;4.10;52.30;;;;;;20539;6824;307204;-73
2023/03/28 03:46:52;;;;;;;3.70;3.40;;;4.30;52.30;;;;;;20784;6824;123973;-74
2023/03/28 03:49:17;;;;;;;4.60;4.25;;;4.30;52.20;;;;;;20561;6824;335694;-73
2023/03/28 03:51:43;;;;;;;4.00;3.70;;;4.50;51.90;;;;;;20775;6824;117604;-72
2023/03/28 03:54:10;;;;;;;4.30;4.00;;;4.50;51.70;;;;;;20563;6824;307493;-72
2023/03/28 03:56:34;;;;;;;4.33;3.73;;;4.60;51.30;;;;;;20753;6824;117067;-73
2023/03/28 03:59:00;;;;;;;4.67;4.27;;;4.60;51.30;;;;;;20566;6824;294662;-73
2023/03/28 04:01:28;;;;;;;3.53;3.33;;;4.70;51.00;;;;;;20778;6824;117489;-73
2023/03/28 04:03:51;;;;;;;4.15;3.90;;;4.60;50.90;;;;;;20553;6824;335923;-72
2023/03/28 04:06:16;;;;;;;4.80;4.40;;;4.70;50.70;;;;;;20550;6824;328093;-73
2023/03/28 04:08:42;;;;;;;4.63;4.33;;;5.20;49.50;;;;;;20554;6824;312195;-72
2023/03/28 04:11:09;;;;;;;4.63;4.33;;;5.20;49.50;;;;;;20572;6824;286340;-73
2023/03/28 04:13:34;;;;;;;4.00;3.70;;;5.30;49.50;;;;;;20780;6824;116920;-74
2023/03/28 04:15:59;;;;;;;3.73;3.53;;;5.10;50.30;;;;;;20784;6822;117369;-74
2023/03/28 04:18:25;;;;;;;4.68;4.28;;;4.80;50.40;;;;;;20560;6823;305032;-76
2023/03/28 04:20:53;;;;;;;4.10;3.80;;;4.60;50.40;;;;;;20785;6823;117490;-74
2023/03/28 04:23:17;;;;;;;4.17;3.77;;;4.60;50.40;;;;;;20773;6823;117560;-75
2023/03/28 04:25:42;;;;;;;4.20;3.93;;;4.30;50.90;;;;;;20779;6823;117364;-73
2023/03/28 04:28:08;;;;;;;6.80;6.20;;;4.10;51.30;;;;;;20778;6823;117087;-73
2023/03/28 04:30:33;;;;;;;5.60;5.20;;;3.90;51.80;;;;;;20553;6823;341025;-74
2023/03/28 04:33:00;;;;;;;4.90;4.50;;;4.00;51.90;;;;;;20776;6823;117722;-76
2023/03/28 04:35:24;;;;;;;5.80;5.30;;;4.00;51.70;;;;;;20567;6823;318638;-74
2023/03/28 04:37:52;;;;;;;4.70;4.32;;;4.20;51.90;;;;;;20718;6823;116830;-75
2023/03/28 04:40:20;;;;;;;5.15;4.85;;;4.30;51.90;;;;;;20570;6823;308348;-74
2023/03/28 04:42:45;;;;;;;5.07;4.67;;;4.30;51.80;;;;;;20758;6823;120763;-76
2023/03/28 04:45:10;;;;;;;6.03;5.47;;;4.30;51.90;;;;;;20580;6823;280018;-76
2023/03/28 04:47:39;;;;;;;6.77;6.20;;;4.40;52.00;;;;;;20580;6823;310793;-75
2023/03/28 04:50:05;;;;;;;4.90;4.50;;;4.70;51.40;;;;;;20790;6823;117763;-74
2023/03/28 04:52:30;;;;;;;4.40;4.10;;;4.60;51.30;;;;;;20767;6823;117431;-74
2023/03/28 04:54:58;;;;;;;7.30;6.70;;;4.40;51.40;;;;;;20576;6824;307048;-79
2023/03/28 04:57:23;;;;;;;6.30;5.90;;;4.30;51.20;;;;;;20566;6824;306944;-75
2023/03/28 04:59:49;;;;;;;6.10;5.70;;;4.60;50.30;;;;;;20575;6824;308074;-75
2023/03/28 05:02:14;;;;;;;5.47;4.97;;;4.80;50.20;;;;;;20769;6824;121135;-75
2023/03/28 05:04:41;;;;;;;6.27;5.77;;;4.60;50.30;;;;;;20537;6824;346089;-73
2023/03/28 05:07:05;;;;;;;6.20;5.80;;;4.60;50.20;;;;;;20565;6824;277485;-73
2023/03/28 05:09:32;;;;;;;5.07;4.77;;;4.50;49.20;;;;;;20779;6824;116781;-73
2023/03/28 05:11:58;;;;;;;4.70;4.40;;;4.50;49.20;;;;;;20776;6824;116804;-77
2023/03/28 05:14:24;;;;;;;6.33;5.83;;;4.10;50.00;;;;;;20549;6824;307462;-76
2023/03/28 05:16:50;;;;;;;6.22;5.75;;;4.40;50.80;;;;;;20577;6824;307780;-76
2023/03/28 05:19:16;;;;;;;6.07;5.53;;;4.40;50.30;;;;;;20789;6824;119458;-74
2023/03/28 05:21:41;;;;;;;4.63;4.33;;;4.30;50.50;;;;;;20768;6824;116959;-74
2023/03/28 05:24:07;;;;;;;4.70;4.40;;;4.00;51.10;;;;;;20775;6824;116858;-74
2023/03/28 05:26:33;;;;;;;5.13;4.77;;;3.80;51.80;;;;;;20766;6822;117502;-74
2023/03/28 05:28:58;;;;;;;5.75;5.30;;;3.60;52.30;;;;;;20776;6823;117497;-74
2023/03/28 05:31:24;;;;;;;5.30;4.40;;;3.50;52.80;;;;;;20783;6823;122274;-73
2023/03/28 05:33:49;;;;;;;4.97;4.47;;;3.40;53.30;;;;;;20775;6823;116956;-73
2023/03/28 05:36:15;;;;;;;6.60;6.20;;;3.30;53.60;;;;;;20574;6823;309765;-72
2023/03/28 05:38:41;;;;;;;5.33;4.80;;;3.60;53.50;;;;;;20773;6823;119118;-73
2023/03/28 05:41:06;;;;;;;4.57;4.27;;;3.70;53.20;;;;;;20789;6823;117165;-71
2023/03/28 05:43:33;;;;;;;5.43;5.00;;;3.60;53.30;;;;;;20770;6823;116906;-74
2023/03/28 05:45:58;;;;;;;5.40;5.00;;;3.50;53.60;;;;;;20784;6823;116878;-75
2023/03/28 05:48:24;;;;;;;5.37;4.97;;;3.40;54.00;;;;;;20765;6823;127734;-74
2023/03/28 05:50:51;;;;;;;6.30;5.90;;;3.40;54.30;;;;;;20569;6823;336883;-74
2023/03/28 05:53:19;;;;;;;5.53;5.23;;;3.90;54.80;;;;;;20773;6823;116800;-73
2023/03/28 05:55:44;;;;;;;5.83;5.37;;;3.90;54.80;;;;;;20778;6823;118822;-73
2023/03/28 05:58:10;;;;;;;7.20;6.60;;;4.40;54.20;;;;;;20565;6823;313594;-73
2023/03/28 06:00:36;;;;;;;6.43;6.00;;;4.40;54.10;;;;;;20767;6823;116898;-74
2023/03/28 06:03:01;;;;;;;7.28;6.72;;;4.70;53.90;;;;;;20574;6823;307399;-74
2023/03/28 06:05:27;;;;;;;19.10;17.62;;;5.10;52.70;;;;;;20575;6824;277519;-73
2023/03/28 06:07:53;;;;;;;9.07;8.33;;;5.50;51.30;;;;;;20786;6824;117254;-73
2023/03/28 06:10:18;;;;;;;6.00;5.60;;;5.70;51.50;;;;;;20784;6824;117714;-73
2023/03/28 06:12:44;;;;;;;6.65;6.15;;;5.60;52.30;;;;;;20568;6824;277466;-74
2023/03/28 06:15:10;;;;;;;5.97;5.47;;;5.80;51.30;;;;;;20784;6824;116902;-75
2023/03/28 06:17:36;;;;;;;5.37;4.97;;;5.80;51.30;;;;;;20765;6824;117589;-73
2023/03/28 06:20:03;;;;;;;7.00;6.50;;;5.70;51.80;;;;;;20571;6824;277023;-75
2023/03/28 06:22:27;;;;;;;7.17;6.70;;;5.90;50.60;;;;;;20545;6824;288899;-73
2023/03/28 06:24:53;;;;;;;5.90;5.50;;;6.20;49.80;;;;;;20774;6824;117141;-74
2023/03/28 06:27:19;;;;;;;5.83;5.43;;;6.10;49.70;;;;;;20783;6824;116966;-74
2023/03/28 06:29:44;;;;;;;5.37;4.97;;;5.90;50.40;;;;;;20779;6824;116796;-74
2023/03/28 06:32:11;;;;;;;6.70;6.30;;;5.80;51.20;;;;;;20565;6824;311868;-74
2023/03/28 06:34:37;;;;;;;5.70;5.30;;;5.90;50.40;;;;;;20758;6824;117517;-74
2023/03/28 06:37:02;;;;;;;6.65;6.22;;;6.00;50.60;;;;;;20572;6824;277466;-74
2023/03/28 06:39:30;;;;;;;6.35;6.05;;;6.50;49.60;;;;;;20554;6822;278436;-74
2023/03/28 06:41:55;;;;;;;5.87;5.30;;;6.50;49.60;;;;;;20787;6823;116791;-74
2023/03/28 06:44:21;;;;;;;5.77;5.37;;;6.50;49.80;;;;;;20554;6823;278009;-74
2023/03/28 06:46:46;;;;;;;6.40;5.90;;;6.60;49.70;;;;;;20570;6823;306682;-74
2023/03/28 06:49:13;;;;;;;5.37;5.00;;;6.90;49.40;;;;;;20788;6823;117109;-76
2023/03/28 06:51:38;;;;;;;7.20;5.10;;;6.90;49.40;;;;;;20793;6823;121182;-77
2023/03/28 06:54:04;;;;;;;6.97;6.47;;;6.70;50.10;;;;;;20587;6823;282449;-74
2023/03/28 06:56:30;;;;;;;6.37;5.97;;;6.80;49.60;;;;;;20566;6823;311551;-74
2023/03/28 06:58:56;;;;;;;6.70;6.30;;;7.50;47.90;;;;;;20581;6823;278335;-76
2023/03/28 07:01:22;;;;;;;6.62;6.20;;;7.50;48.00;;;;;;20569;6823;307480;-73
2023/03/28 07:03:49;;;;;;;5.37;5.03;;;7.80;47.80;;;;;;20776;6823;116684;-73
2023/03/28 07:06:15;;;;;;;6.47;5.97;;;7.90;47.30;;;;;;20583;6823;306887;-73
2023/03/28 07:08:42;;;;;;;5.83;5.30;;;7.90;47.30;;;;;;20768;6823;119577;-73
2023/03/28 07:11:07;;;;;;;6.40;5.90;;;7.90;48.10;;;;;;20573;6823;336897;-73
2023/03/28 07:13:33;;;;;;;6.23;5.73;;;8.00;47.30;;;;;;20558;6823;311643;-74
2023/03/28 07:16:05;;;;;;;5.87;5.47;;;8.30;46.70;;;;;;20565;6824;277582;-73
2023/03/28 07:18:31;;;;;;;5.90;5.40;;;8.60;46.20;;;;;;20541;6824;305481;-74
2023/03/28 07:20:56;;;;;;;5.37;4.97;;;8.80;46.20;;;;;;20780;6824;117583;-73
2023/03/28 07:23:23;;;;;;;5.07;4.77;;;8.60;46.80;;;;;;20780;6824;119721;-73
2023/03/28 07:25:48;;;;;;;5.80;5.30;;;8.60;47.30;;;;;;20568;6824;281565;-73
2023/03/28 07:28:15;;;;;;;5.17;4.80;;;8.70;45.90;;;;;;20781;6824;118052;-73
2023/03/28 07:30:40;;;;;;;5.93;5.50;;;8.70;45.90;;;;;;20521;6824;352187;-74
2023/03/28 07:33:06;;;;;;;5.45;5.05;;;8.80;45.60;;;;;;20579;6824;340126;-73
2023/03/28 07:35:31;;;;;;;6.45;5.30;;;9.10;45.00;;;;;;20583;6824;277413;-73
2023/03/28 07:37:58;;;;;;;4.65;4.32;;;9.50;44.40;;;;;;20802;6824;116839;-72
2023/03/28 07:40:23;;;;;;;5.47;5.07;;;9.40;44.90;;;;;;20765;6824;120079;-73
2023/03/28 07:42:48;;;;;;;4.50;4.30;;;9.20;45.80;;;;;;20787;6824;117051;-72
2023/03/28 07:45:14;;;;;;;5.50;4.33;;;9.00;46.60;;;;;;20780;6824;116867;-73
2023/03/28 07:47:39;;;;;;;4.85;4.47;;;8.90;47.10;;;;;;20570;6824;277897;-72
2023/03/28 07:50:05;;;;;;;5.03;4.70;;;9.10;45.30;;;;;;20789;6822;117385;-72
2023/03/28 07:52:31;;;;;;;4.37;4.00;;;9.30;45.80;;;;;;20763;6823;117822;-72
2023/03/28 07:54:57;;;;;;;5.13;4.43;;;9.20;47.00;;;;;;20782;6823;117348;-72
2023/03/28 07:57:23;;;;;;;5.07;4.60;;;9.20;47.00;;;;;;20577;6823;315792;-72
2023/03/28 07:59:49;;;;;;;5.57;4.70;;;9.50;44.30;;;;;;20578;6823;277909;-72
2023/03/28 08:02:14;;;;;;;4.50;4.10;;;10.00;42.20;;;;;;20798;6823;117305;-71
2023/03/28 08:04:40;;;;;;;5.00;4.50;;;10.10;42.80;;;;;;20547;6823;279882;-73
2023/03/28 08:07:06;;;;;;;5.07;4.20;;;10.20;41.60;;;;;;20578;6823;345003;-73
2023/03/28 08:09:31;;;;;;;5.00;3.50;;;10.50;40.00;;;;;;20784;6823;118424;-72
2023/03/28 08:11:56;;;;;;;4.17;3.77;;;10.60;41.10;;;;;;20772;6823;117042;-73
2023/03/28 08:14:22;;;;;;;4.53;4.20;;;10.50;42.00;;;;;;20554;6823;340206;-73
2023/03/28 08:16:47;;;;;;;4.03;3.50;;;10.60;40.20;;;;;;20573;6823;306949;-73
2023/03/28 08:19:14;;;;;;;5.30;3.83;;;10.90;39.90;;;;;;20786;6823;120894;-75
2023/03/28 08:21:39;;;;;;;5.03;3.60;;;10.90;39.90;;;;;;20571;6823;332960;-73
2023/03/28 08:24:06;;;;;;;4.68;3.40;;;11.10;38.50;;;;;;20786;6823;118836;-72
2023/03/28 08:26:32;;;;;;;4.57;2.70;;;11.10;39.40;;;;;;20781;6823;119689;-73
2023/03/28 08:28:59;;;;;;;4.43;2.63;;;11.20;37.60;;;;;;20569;6824;311574;-73
2023/03/28 08:31:25;;;;;;;3.87;2.70;;;11.20;37.60;;;;;;20790;6824;116172;-77
2023/03/28 08:33:53;;;;;;;5.47;2.60;;;11.40;38.60;;;;;;20791;6824;117162;-73
2023/03/28 08:36:19;;;;;;;3.17;2.70;;;11.40;40.10;;;;;;20788;6824;116671;-76
2023/03/28 08:38:45;;;;;;;3.40;3.10;;;11.40;40.00;;;;;;20619;6824;117631;-73
2023/03/28 08:41:10;;;;;;;3.73;2.93;;;11.50;40.80;;;;;;20774;6824;118089;-73
2023/03/28 08:43:39;;;;;;;2.90;2.62;;;11.50;41.10;;;;;;20550;6824;311155;-73
2023/03/28 08:46:05;;;;;;;5.03;3.10;;;12.40;35.90;;;;;;20570;6824;303539;-73
2023/03/28 08:48:31;;;;;;;7.50;2.70;;;12.40;35.90;;;;;;20550;6824;305490;-76
2023/03/28 08:51:10;;;;;;;4.07;2.40;;;12.70;33.40;;;;;;20762;6824;118248;-75
2023/03/28 08:53:42;;;;;;;4.80;2.50;;;12.80;35.00;;;;;;20556;6824;117189;-73
2023/03/28 08:56:09;;;;;;;4.68;3.10;;;12.70;35.20;;;;;;20575;6824;314665;-73
2023/03/28 08:58:49;;;;;;;2.73;2.53;;;12.80;36.80;;;;;;20754;6824;117635;-72
2023/03/28 09:01:15;;;;;;;3.43;2.80;;;13.00;33.70;;;;;;20563;6822;304635;-73
2023/03/28 09:03:40;;;;;;;3.20;2.40;;;13.00;33.70;;;;;;20784;6823;117627;-73
2023/03/28 09:06:06;;;;;;;4.03;2.90;;;13.30;32.20;;;;;;20551;6823;309351;-73
2023/03/28 09:09:00;;;;;;;4.37;2.77;;;13.40;34.30;;;;;;20742;6823;121093;-73
2023/03/28 09:11:42;;;;;;;4.80;3.27;;;13.50;33.10;;;;;;20556;6823;277818;-73
2023/03/28 09:14:08;;;;;;;3.50;3.17;;;13.50;33.00;;;;;;20575;6823;312425;-72
2023/03/28 09:16:36;;;;;;;4.80;2.90;;;13.80;32.30;;;;;;20551;6823;311216;-72
2023/03/28 09:19:09;;;;;;;4.63;2.67;;;13.90;29.90;;;;;;20785;6823;117122;-72
2023/03/28 09:21:58;;;;;;;4.20;2.70;;;13.70;32.00;;;;;;20571;6823;306924;-73
2023/03/28 09:24:46;;;;;;;4.67;2.70;;;13.60;30.40;;;;;;20749;6823;117226;-73
2023/03/28 09:27:33;;;;;;;5.20;2.57;;;13.50;32.20;;;;;;20774;6823;117507;-72
2023/03/28 09:30:01;;;;;;;4.03;2.37;;;13.40;34.00;;;;;;20782;6823;116925;-77
2023/03/28 09:32:27;;;;;;;4.22;2.90;;;13.20;35.10;;;;;;20496;6823;306758;-73
2023/03/28 09:34:52;;;;;;;3.58;2.65;;;13.30;31.00;;;;;;20533;6823;338768;-74
2023/03/28 09:37:29;;;;;;;2.87;2.42;;;13.70;32.80;;;;;;20789;6823;117447;-73
2023/03/28 09:39:54;;;;;;;2.90;1.90;;;13.70;32.80;;;;;;20781;6824;117156;-74
2023/03/28 09:42:42;;;;;;;2.62;2.42;;;13.70;34.40;;;;;;20546;6824;307387;-78
2023/03/28 09:45:33;;;;;;;2.57;2.00;;;13.90;33.40;;;;;;20773;6824;117389;-74
2023/03/28 09:47:57;;;;;;;2.83;2.35;;;13.90;32.90;;;;;;20573;6824;316283;-74
2023/03/28 09:50:23;;;;;;;3.28;2.08;;;14.10;30.20;;;;;;20559;6824;343260;-73
2023/03/28 09:52:51;;;;;;;2.00;1.80;;;14.40;28.00;;;;;;20584;6824;307956;-73
2023/03/28 09:55:15;;;;;;;2.13;1.50;;;14.40;28.00;;;;;;20778;6824;116879;-73
2023/03/28 09:58:03;;;;;;;3.95;1.92;;;14.30;29.40;;;;;;20578;6824;279354;-74
2023/03/28 10:00:40;;;;;;;1.90;1.80;;;14.20;29.20;;;;;;20763;6824;117668;-74
2023/03/28 10:03:07;;;;;;;3.23;2.10;;;14.20;29.20;;;;;;20566;6824;277426;-72
2023/03/28 10:05:34;;;;;;;3.78;1.70;;;14.40;29.50;;;;;;20759;6824;117006;-73
2023/03/28 10:07:59;;;;;;;2.55;2.10;;;14.50;30.20;;;;;;20562;6824;336836;-72
2023/03/28 10:10:25;;;;;;;2.33;1.97;;;14.80;28.70;;;;;;20544;6824;306069;-74
2023/03/28 10:12:50;;;;;;;4.60;1.87;;;15.10;28.10;;;;;;20575;6822;282403;-73
2023/03/28 10:15:36;;;;;;;2.90;1.80;;;15.40;27.50;;;;;;20544;6823;307865;-72
2023/03/28 10:18:02;;;;;;;1.80;1.70;;;15.60;27.40;;;;;;20568;6823;278098;-73
2023/03/28 10:20:28;;;;;;;2.40;1.60;;;15.80;27.40;;;;;;20757;6823;117940;-72
2023/03/28 10:22:53;;;;;;;3.55;1.67;;;15.70;26.80;;;;;;20562;6823;310152;-72
2023/03/28 10:25:22;;;;;;;1.60;1.50;;;15.70;25.50;;;;;;20789;6823;117083;-75
2023/03/28 10:27:48;;;;;;;2.07;1.90;;;15.70;27.40;;;;;;20788;6823;117409;-74
2023/03/28 10:30:20;;;;;;;1.63;1.53;;;15.50;28.70;;;;;;20786;6823;117081;-75
2023/03/28 10:32:46;;;;;;;2.67;1.53;;;15.20;30.20;;;;;;20771;6823;120642;-74
2023/03/28 10:35:29;;;;;;;2.10;1.80;;;15.20;30.20;;;;;;20483;6823;277092;-73
2023/03/28 10:37:53;;;;;;;3.87;2.28;;;15.30;26.00;;;;;;20562;6823;340439;-74
2023/03/28 10:40:19;;;;;;;2.40;2.20;;;15.50;27.10;;;;;;20566;6823;339645;-73
2023/03/28 10:42:44;;;;;;;4.78;4.37;;;15.70;26.90;;;;;;20561;6823;336896;-74
2023/03/28 10:45:22;;;;;;;2.20;2.00;;;15.80;27.90;;;;;;20566;6823;277758;-74
2023/03/28 10:47:46;;;;;;;2.67;1.97;;;15.80;27.30;;;;;;20554;6823;308996;-74
2023/03/28 10:50:21;;;;;;;2.35;2.15;;;16.00;27.80;;;;;;20571;6823;307087;-73
2023/03/28 10:52:47;;;;;;;2.27;2.07;;;16.20;26.10;;;;;;20742;6824;117338;-75
2023/03/28 10:55:12;;;;;;;2.17;1.98;;;16.10;27.80;;;;;;20548;6824;311842;-74
2023/03/28 10:57:49;;;;;;;2.45;1.92;;;15.90;25.60;;;;;;20515;6824;341256;-76
2023/03/28 11:00:18;;;;;;;2.13;1.80;;;16.00;25.60;;;;;;19451;7181;294387;-75
2023/03/28 11:03:04;;;;;;;1.80;1.70;;;16.00;25.60;;;;;;20409;6824;307016;-75
2023/03/28 11:05:36;;;;;;;2.17;1.97;;;15.90;25.40;;;;;;20566;6824;277377;-76
2023/03/28 11:08:29;;;;;;;2.20;1.95;;;15.90;25.00;;;;;;20529;6824;336088;-76
2023/03/28 11:10:57;;;;;;;1.80;1.70;;;15.90;25.00;;;;;;20674;6833;116416;-75
2023/03/28 11:13:53;;;;;;;2.77;1.70;;;15.20;27.80;;;;;;20758;6817;117598;-75
2023/03/28 11:16:25;;;;;;;2.87;1.90;;;15.10;27.70;;;;;;20766;6817;117503;-74
2023/03/28 11:19:27;;;;;;;2.60;1.70;;;14.70;28.40;;;;;;20804;6817;117230;-76
2023/03/28 11:22:10;;;;;;;3.10;2.00;;;14.30;30.30;;;;;;19700;7170;119526;-73
2023/03/28 11:24:42;;;;;;;5.40;1.80;;;14.30;30.30;;;;;;20291;6835;118702;-71
2023/03/28 11:27:29;;;;;;;1.93;1.73;;;14.10;30.90;;;;;;20720;6828;117521;-72
2023/03/28 11:29:58;;;;;;;3.07;1.73;;;14.10;30.20;;;;;;20508;6843;277707;-71
2023/03/28 11:32:30;;;;;;;1.90;1.80;;;14.40;28.20;;;;;;20694;6843;117343;-73
2023/03/28 11:35:13;;;;;;;1.73;1.63;;;14.30;28.20;;;;;;20688;6843;117369;-74
2023/03/28 11:37:45;;;;;;;2.00;1.80;;;14.10;28.40;;;;;;20538;6828;295844;-72
2023/03/28 11:40:21;;;;;;;2.20;1.80;;;14.10;26.50;;;;;;20719;6843;117572;-73
2023/03/28 11:42:46;;;;;;;2.07;1.87;;;14.10;27.80;;;;;;20718;6842;117263;-75
2023/03/28 11:45:32;;;;;;;2.43;1.97;;;13.90;28.30;;;;;;20697;6842;117016;-74
2023/03/28 11:48:18;;;;;;;2.30;2.10;;;13.70;28.80;;;;;;20535;6833;306187;-73
2023/03/28 11:51:00;;;;;;;2.23;1.63;;;13.90;27.10;;;;;;20736;6833;117478;-75
2023/03/28 11:53:31;;;;;;;3.50;2.00;;;13.90;27.70;;;;;;20540;6833;307588;-77
2023/03/28 11:56:07;;;;;;;2.73;1.83;;;14.00;27.10;;;;;;20742;6833;118216;-76
2023/03/28 11:58:32;;;;;;;3.03;1.80;;;14.00;28.00;;;;;;20240;6827;310225;-76
2023/03/28 12:01:08;;;;;;;2.40;1.90;;;14.20;24.40;;;;;;20547;6827;307536;-76
2023/03/28 12:03:43;;;;;;;2.83;1.70;;;14.20;24.90;;;;;;20735;6827;116364;-76
2023/03/28 12:06:25;;;;;;;2.43;1.80;;;14.10;26.20;;;;;;20514;6827;331220;-77
2023/03/28 12:09:11;;;;;;;1.87;1.77;;;14.20;26.70;;;;;;20774;6824;117812;-81
2023/03/28 12:11:39;;;;;;;1.70;1.60;;;14.20;27.60;;;;;;20786;6824;120479;-79
2023/03/28 12:14:25;;;;;;;1.80;1.70;;;13.90;28.10;;;;;;20737;6824;117090;-73
2023/03/28 12:16:50;;;;;;;2.40;2.10;;;13.70;28.50;;;;;;20540;6824;306522;-77
2023/03/28 12:19:17;;;;;;;2.50;2.20;;;13.90;25.70;;;;;;20572;6824;309573;-82
2023/03/28 12:21:43;;;;;;;2.93;1.63;;;14.00;24.60;;;;;;20769;6824;116986;-76
2023/03/28 12:24:12;;;;;;;1.80;1.70;;;14.00;26.60;;;;;;20568;6824;305504;-75
2023/03/28 12:27:00;;;;;;;1.93;1.83;;;14.00;25.90;;;;;;20531;6824;311583;-76
2023/03/28 12:29:33;;;;;;;1.70;1.60;;;14.10;27.10;;;;;;20780;6824;117088;-76
2023/03/28 12:31:59;;;;;;;1.97;1.87;;;14.00;27.90;;;;;;20786;6824;117634;-76
2023/03/28 12:34:42;;;;;;;1.67;1.57;;;13.90;27.80;;;;;;20753;6824;117842;-77
2023/03/28 12:37:21;;;;;;;2.40;1.80;;;13.80;28.40;;;;;;20779;6822;118109;-76
2023/03/28 12:40:00;;;;;;;2.20;2.10;;;13.80;25.40;;;;;;20579;6823;277896;-78
2023/03/28 12:42:26;;;;;;;2.00;1.90;;;13.90;25.40;;;;;;20533;6823;307093;-75
2023/03/28 12:45:01;;;;;;;2.20;2.00;;;14.20;25.20;;;;;;20561;6823;311659;-76
2023/03/28 12:47:26;;;;;;;2.20;1.60;;;14.50;24.10;;;;;;20766;6823;117937;-77
2023/03/28 12:49:55;;;;;;;2.28;2.12;;;14.40;25.70;;;;;;20761;6823;117287;-79
2023/03/28 12:52:27;;;;;;;3.27;1.70;;;14.20;26.80;;;;;;20699;6823;118034;-78
2023/03/28 12:54:59;;;;;;;2.15;1.95;;;14.00;27.50;;;;;;20412;6838;278137;-80